Frojdi II — ZAD4L — position and weather

sailwx.info

Track history (hours):
 
Tides and Currents Weather Stations Pressure Air Temp Water Temp Dewpoint Dewpoint Depression Visibility Wind Speed Wind Dir Waves Ship Positions

Frojdi II

Last reported at 2017-Aug-31 20:32 UTC. Time now 2017-Sep-22 02:52 UTC.
Position N 43°08' E 014°10'.
Warning: this ship's position is 21 days out of date.

Length 75 m; draft 2.9 m.

Type: Cargo ship. MMSI: 201100115.

Date/timePositionNaut miles runAvg speedWind from/ knotsBaromVisibWave heightAir tempDewpointWater temp
2017-Aug-31 20:32N 43°08' E 014°10'0 7.2
2017-Aug-31 20:28N 43°09' E 014°10'4 7.1
2017-Aug-31 19:58N 43°12' E 014°07'4 7.0
2017-Aug-31 19:26N 43°15' E 014°05'3 6.9
2017-Aug-31 19:00N 43°17' E 014°02'4 6.8
2017-Aug-31 18:23N 43°21' E 013°59'5 6.7
2017-Aug-31 17:34N 43°25' E 013°55'1 6.4
2017-Aug-31 17:23N 43°26' E 013°54'3 6.5
2017-Aug-31 16:55N 43°29' E 013°51'12 6.6
2017-Aug-31 15:06N 43°38' E 013°42'1 6.5
2017-Aug-31 14:59N 43°39' E 013°41'3 5.6
2017-Aug-31 14:27N 43°40' E 013°38'5 6.6
2017-Aug-31 13:44N 43°39' E 013°31'2 5.3
2017-Aug-31 13:23N 43°38' E 013°29'1 0.8
2017-Aug-31 12:29N 43°37' E 013°30'0 0.0
2017-Aug-31 11:47N 43°37' E 013°30'0 0.0
2017-Aug-31 11:26N 43°37' E 013°30'0 0.0
2017-Aug-31 08:15N 43°37' E 013°30'0 0.0
2017-Aug-31 08:00N 43°37' E 013°30'0 0.0
2017-Aug-31 03:50N 43°37' E 013°30'0 0.0
2017-Aug-31 03:30N 43°37' E 013°30'0 0.0
2017-Aug-31 03:00N 43°37' E 013°30'0 0.0
2017-Aug-31 02:31N 43°37' E 013°30'0 0.0
2017-Aug-31 02:01N 43°37' E 013°30'0 0.0
2017-Aug-31 01:30N 43°37' E 013°30'0 0.0
2017-Aug-31 01:00N 43°37' E 013°30'0 0.0
2017-Aug-31 00:30N 43°37' E 013°30'0 0.0
2017-Aug-31 00:00N 43°37' E 013°30'0 0.0
2017-Aug-30 23:29N 43°37' E 013°30'0 0.0
2017-Aug-30 21:01N 43°37' E 013°30'0 0.1
2017-Aug-30 20:59N 43°37' E 013°30'  
2017-Aug-26 21:37N 37°51' E 023°20'2 7.0
2017-Aug-26 21:23N 37°51' E 023°22'5 7.0
2017-Aug-26 20:41N 37°50' E 023°29'1 7.1
2017-Aug-26 20:30N 37°50' E 023°30'3 7.0
2017-Aug-26 20:00N 37°50' E 023°35'4 7.0
2017-Aug-26 19:30N 37°51' E 023°39'3 6.9
2017-Aug-26 19:00N 37°48' E 023°41'3 6.9
2017-Aug-26 18:30N 37°44' E 023°43'  
2017-Aug-22 20:33N 37°39' E 023°45'1 6.6
2017-Aug-22 20:27N 37°39' E 023°44'3 6.4
2017-Aug-22 20:00N 37°41' E 023°41'4 7.1
2017-Aug-22 19:30N 37°44' E 023°39'4 7.1
2017-Aug-22 19:00N 37°48' E 023°37'3 6.6
2017-Aug-22 18:30N 37°49' E 023°34'4 7.3
2017-Aug-22 18:00N 37°50' E 023°29'4 7.1
2017-Aug-22 17:30N 37°51' E 023°25'4 7.0
2017-Aug-22 17:00N 37°52' E 023°21'  
Track history (hours):
 
Tides and Currents Weather Stations Pressure Air Temp Water Temp Dewpoint Dewpoint Depression Visibility Wind Speed Wind Dir Waves Ship Positions

Frojdi II

Last reported at 2017-Aug-31 20:32 UTC. Time now 2017-Sep-22 02:52 UTC.
Position N 43°08' E 014°10'.
Warning: this ship's position is 21 days out of date.

Length 75 m; draft 2.9 m.

Type: Cargo ship. MMSI: 201100115.

Date/timePositionNaut miles runAvg speedWind from/ knotsBaromVisibWave heightAir tempDewpointWater temp
2017-Aug-31 20:32N 43°08' E 014°10'0 7.2
2017-Aug-31 20:28N 43°09' E 014°10'4 7.1
2017-Aug-31 19:58N 43°12' E 014°07'4 7.0
2017-Aug-31 19:26N 43°15' E 014°05'3 6.9
2017-Aug-31 19:00N 43°17' E 014°02'4 6.8
2017-Aug-31 18:23N 43°21' E 013°59'5 6.7
2017-Aug-31 17:34N 43°25' E 013°55'1 6.4
2017-Aug-31 17:23N 43°26' E 013°54'3 6.5
2017-Aug-31 16:55N 43°29' E 013°51'12 6.6
2017-Aug-31 15:06N 43°38' E 013°42'1 6.5
2017-Aug-31 14:59N 43°39' E 013°41'3 5.6
2017-Aug-31 14:27N 43°40' E 013°38'5 6.6
2017-Aug-31 13:44N 43°39' E 013°31'2 5.3
2017-Aug-31 13:23N 43°38' E 013°29'1 0.8
2017-Aug-31 12:29N 43°37' E 013°30'0 0.0
2017-Aug-31 11:47N 43°37' E 013°30'0 0.0
2017-Aug-31 11:26N 43°37' E 013°30'0 0.0
2017-Aug-31 08:15N 43°37' E 013°30'0 0.0
2017-Aug-31 08:00N 43°37' E 013°30'0 0.0
2017-Aug-31 03:50N 43°37' E 013°30'0 0.0
2017-Aug-31 03:30N 43°37' E 013°30'0 0.0
2017-Aug-31 03:00N 43°37' E 013°30'0 0.0
2017-Aug-31 02:31N 43°37' E 013°30'0 0.0
2017-Aug-31 02:01N 43°37' E 013°30'0 0.0
2017-Aug-31 01:30N 43°37' E 013°30'0 0.0
2017-Aug-31 01:00N 43°37' E 013°30'0 0.0
2017-Aug-31 00:30N 43°37' E 013°30'0 0.0
2017-Aug-31 00:00N 43°37' E 013°30'0 0.0
2017-Aug-30 23:29N 43°37' E 013°30'0 0.0
2017-Aug-30 21:01N 43°37' E 013°30'0 0.1
2017-Aug-30 20:59N 43°37' E 013°30'  
2017-Aug-26 21:37N 37°51' E 023°20'2 7.0
2017-Aug-26 21:23N 37°51' E 023°22'5 7.0
2017-Aug-26 20:41N 37°50' E 023°29'1 7.1
2017-Aug-26 20:30N 37°50' E 023°30'3 7.0
2017-Aug-26 20:00N 37°50' E 023°35'4 7.0
2017-Aug-26 19:30N 37°51' E 023°39'3 6.9
2017-Aug-26 19:00N 37°48' E 023°41'3 6.9
2017-Aug-26 18:30N 37°44' E 023°43'  
2017-Aug-22 20:33N 37°39' E 023°45'1 6.6
2017-Aug-22 20:27N 37°39' E 023°44'3 6.4
2017-Aug-22 20:00N 37°41' E 023°41'4 7.1
2017-Aug-22 19:30N 37°44' E 023°39'4 7.1
2017-Aug-22 19:00N 37°48' E 023°37'3 6.6
2017-Aug-22 18:30N 37°49' E 023°34'4 7.3
2017-Aug-22 18:00N 37°50' E 023°29'4 7.1
2017-Aug-22 17:30N 37°51' E 023°25'4 7.0
2017-Aug-22 17:00N 37°52' E 023°21'  

Dump ship's entire track history